Meteo Giornale » Osservazioni meteo Stati Uniti (USA) » Belmar-Farmdale

ore: 02:14 - Osservazioni Meteo Belmar-Farmdale
Lat. 40° 11' N Lon. 74° 8' W Alt. 48 metri s.l.m.

coperto America/New_York

18 °C

Coperto

Temp. 24 Ore

12 °C

23 °C

Nord/NOvest

9.3 Km/h

Dew point 16 °C

Umidità 88 %

Visibilità  10 Km

Il sole sorge alle ore 05:26

Il sole tramonta alle ore 20:31

Data e Ora Cielo e Fenomeni T °C DP °C Um. % Pres. hPa Vis. km Vento km/h
Oggi h: 02:14 coperto Coperto 18 16 88 1026 10 N/NO 9.3
Oggi h: 01:56 coperto Coperto 18 16 88 1026 10 N/NE 7.4
Oggi h: 00:56 coperto Coperto 18 16 88 1026 10 NE 11.1
Ieri h: 23:56 coperto Coperto 18 16 88 1027 10 NE 9.3
Ieri h: 23:36 coperto Coperto 17 13 77 1027 10 N 0
Ieri h: 22:56 molto_nuvoloso Molto Nuvoloso 17 13 77 1027 10 N/NE 7.4
Ieri h: 21:56 sereno Sereno 17 12 72 1027 10 NE 7.4
Ieri h: 20:56 sereno Sereno 18 12 67 1027 10 N 5.5
Ieri h: 19:56 sereno Sereno 19 13 68 1027 10 E/NE 13
Ieri h: 18:56 sereno Sereno 20 12 59 1027 10 E/NE 14.8
Ieri h: 17:56 sereno Sereno 21 11 52 1027 10 E 16.7
Ieri h: 16:56 sereno Sereno 22 10 46 1027 10 E 16.7
Ieri h: 15:56 sereno Sereno 22 9 43 1028 10 E/NE 16.7
Ieri h: 14:56 sereno Sereno 22 9 43 1029 10 E 14.8
Ieri h: 13:56 sereno Sereno 23 10 43 1029 10 E 14.8
Ieri h: 12:56 sereno Sereno 22 12 53 1029 10 E/SE 16.7
Ieri h: 11:56 sereno Sereno 22 12 53 1029 10 E/SE 20.3
Ieri h: 09:56 sereno Sereno 21 11 52 1029 10 E/NE 11.1
Ieri h: 08:56 sereno Sereno 20 12 59 1029 10 N 5.5
Ieri h: 07:56 sereno Sereno 19 11 59 1029 10 N 0
Ieri h: 06:56 sereno Sereno 16 12 77 1028 10 N 0
Ieri h: 05:56 sereno Sereno 13 10 81 1028 10 N 0
Ieri h: 04:56 sereno Sereno 12 10 87 1027 10 N 0
Ieri h: 03:56 sereno Sereno 13 10 81 1027 10 N 0
Ieri h: 02:56 sereno Sereno 13 10 81 1027 10 N 0